Time;durP1;ratioP1;P1;durP2;ratioP2;P2;SDS_P1;SDS_P2;PMS_P1;PMS_P2;Temp;Humidity;BMP_temperature;BMP_pressure;BME280_temperature;BME280_humidity;BME280_pressure;Samples;Min_cycle;Max_cycle;Signal;HPM_P1;HPM_P2
2021/05/05 00:01:51;;;;;;;16.13;8.35;;;;;;;;;;4319947;28;10000705;-57
2021/05/05 00:04:17;;;;;;;18.75;9.60;;;;;;;;;;4991261;28;20022;-54
2021/05/05 00:06:43;;;;;;;16.77;9.15;;;;;;;;;;5011019;28;20682;-53
2021/05/05 00:09:09;;;;;;;19.15;9.55;;;;;;;;;;5011695;28;20018;-56
2021/05/05 00:11:35;;;;;;;18.23;9.55;;;;;;;;;;5012829;28;20056;-52
2021/05/05 00:14:01;;;;;;;18.33;10.65;;;;;;;;;;5013059;28;20390;-55
2021/05/05 00:16:27;;;;;;;16.33;9.27;;;;;;;;;;5012056;28;20125;-53
2021/05/05 00:18:53;;;;;;;15.55;8.70;;;;;;;;;;5013118;28;20097;-53
2021/05/05 00:21:19;;;;;;;16.02;8.80;;;;;;;;;;5012847;28;20334;-55
2021/05/05 00:23:45;;;;;;;18.35;9.00;;;;;;;;;;5013511;28;20386;-53
2021/05/05 00:26:11;;;;;;;15.73;8.60;;;;;;;;;;5014511;28;20116;-52
2021/05/05 00:28:37;;;;;;;16.77;9.13;;;;;;;;;;5012534;28;20026;-54
2021/05/05 00:31:03;;;;;;;16.60;8.98;;;;;;;;;;5014080;28;20541;-53
2021/05/05 00:33:29;;;;;;;17.73;9.25;;;;;;;;;;5013285;28;20052;-51
2021/05/05 00:35:55;;;;;;;16.80;9.40;;;;;;;;;;5014302;28;20037;-51
2021/05/05 00:38:21;;;;;;;17.25;9.13;;;;;;;;;;5013221;28;20030;-53
2021/05/05 00:40:47;;;;;;;18.30;9.50;;;;;;;;;;5014027;28;20057;-55
2021/05/05 00:43:13;;;;;;;18.10;8.88;;;;;;;;;;5014294;28;20021;-54
2021/05/05 00:45:39;;;;;;;18.67;9.25;;;;;;;;;;5014225;28;20064;-54
2021/05/05 00:48:05;;;;;;;15.43;7.88;;;;;;;;;;5014289;28;20038;-51
2021/05/05 00:50:31;;;;;;;16.20;8.80;;;;;;;;;;5014296;28;20026;-55
2021/05/05 00:52:57;;;;;;;18.20;8.95;;;;;;;;;;5040880;22;20349;-62
2021/05/05 00:55:23;;;;;;;16.10;8.20;;;;;;;;;;5033318;28;20045;-62
2021/05/05 00:57:49;;;;;;;18.45;9.70;;;;;;;;;;5033346;28;20025;-62
2021/05/05 01:00:18;;;;;;;17.42;8.88;;;;;;;;;;5034594;28;20104;-62
2021/05/05 01:02:44;;;;;;;17.30;8.75;;;;;;;;;;5033600;28;20017;-61
2021/05/05 01:05:11;;;;;;;17.85;8.20;;;;;;;;;;5033354;28;20099;-60
2021/05/05 01:07:36;;;;;;;19.42;9.00;;;;;;;;;;5033689;28;20239;-58
2021/05/05 01:10:05;;;;;;;16.80;8.30;;;;;;;;;;5031943;28;20540;-63
2021/05/05 01:12:31;;;;;;;16.92;7.43;;;;;;;;;;5032095;28;20372;-58
2021/05/05 01:14:57;;;;;;;15.63;7.80;;;;;;;;;;5032650;28;20195;-62
2021/05/05 01:17:23;;;;;;;16.70;7.93;;;;;;;;;;5033574;28;20036;-62
2021/05/05 01:19:49;;;;;;;16.52;6.88;;;;;;;;;;5034087;28;20017;-63
2021/05/05 01:22:15;;;;;;;15.30;7.10;;;;;;;;;;5032081;28;20462;-62
2021/05/05 01:24:41;;;;;;;14.98;7.13;;;;;;;;;;5033836;28;20025;-61
2021/05/05 01:27:07;;;;;;;15.93;7.45;;;;;;;;;;5032749;28;20028;-62
2021/05/05 01:29:34;;;;;;;17.13;7.45;;;;;;;;;;5033328;28;20025;-61
2021/05/05 01:32:00;;;;;;;16.73;8.40;;;;;;;;;;5032891;28;20151;-60
2021/05/05 01:34:26;;;;;;;16.13;7.05;;;;;;;;;;5032670;28;20044;-62
2021/05/05 01:36:53;;;;;;;17.45;7.95;;;;;;;;;;5031608;28;20166;-61
2021/05/05 01:39:19;;;;;;;16.77;7.50;;;;;;;;;;5032164;28;20025;-60
2021/05/05 01:41:46;;;;;;;18.75;8.07;;;;;;;;;;5031787;28;20025;-60
2021/05/05 01:44:12;;;;;;;17.95;8.00;;;;;;;;;;5031447;28;20117;-62
2021/05/05 01:46:48;;;;;;;19.40;8.27;;;;;;;;;;5031593;28;20021;-60
2021/05/05 01:49:23;;;;;;;18.40;9.00;;;;;;;;;;5032239;28;20592;-60
2021/05/05 01:51:50;;;;;;;16.85;8.30;;;;;;;;;;5031438;28;20029;-61
2021/05/05 01:54:16;;;;;;;17.48;9.43;;;;;;;;;;5030962;28;20041;-60
2021/05/05 01:56:42;;;;;;;19.63;9.27;;;;;;;;;;5031075;28;20381;-56
2021/05/05 01:59:08;;;;;;;20.70;9.82;;;;;;;;;;5031033;28;20025;-60
2021/05/05 02:01:34;;;;;;;17.55;8.55;;;;;;;;;;5030922;28;20024;-62
2021/05/05 02:04:02;;;;;;;19.38;10.23;;;;;;;;;;5032393;28;20044;-61
2021/05/05 02:06:28;;;;;;;17.73;8.38;;;;;;;;;;5031030;28;20064;-61
2021/05/05 02:08:54;;;;;;;17.80;9.30;;;;;;;;;;5032020;28;20025;-60
2021/05/05 02:11:20;;;;;;;18.65;8.88;;;;;;;;;;5032498;28;20037;-62
2021/05/05 02:13:46;;;;;;;17.70;8.18;;;;;;;;;;5032064;28;20029;-61
2021/05/05 02:16:12;;;;;;;18.73;8.50;;;;;;;;;;5030811;28;20044;-62
2021/05/05 02:18:38;;;;;;;16.85;7.35;;;;;;;;;;5030756;28;20489;-57
2021/05/05 02:21:07;;;;;;;18.33;8.25;;;;;;;;;;5030858;28;20032;-58
2021/05/05 02:23:33;;;;;;;;;;;;;;;;;;5032676;28;20198;-60
2021/05/05 02:26:00;;;;;;;17.95;7.38;;;;;;;;;;5031956;28;19905;-62
2021/05/05 02:28:26;;;;;;;17.25;8.40;;;;;;;;;;5031755;28;20063;-63
2021/05/05 02:30:52;;;;;;;17.67;8.13;;;;;;;;;;5031830;28;20028;-63
2021/05/05 02:33:17;;;;;;;20.35;8.45;;;;;;;;;;5030445;28;20055;-62
2021/05/05 02:35:43;;;;;;;21.33;8.40;;;;;;;;;;5032073;28;20067;-62
2021/05/05 02:38:09;;;;;;;20.65;7.90;;;;;;;;;;5030750;28;20411;-63
2021/05/05 02:40:37;;;;;;;17.27;7.70;;;;;;;;;;5032068;28;20021;-61
2021/05/05 02:43:03;;;;;;;18.27;8.30;;;;;;;;;;5031563;28;20026;-61
2021/05/05 02:45:29;;;;;;;19.33;7.43;;;;;;;;;;5032035;28;20075;-61
2021/05/05 02:47:55;;;;;;;18.38;7.50;;;;;;;;;;5030776;28;20382;-62
2021/05/05 02:50:21;;;;;;;18.27;7.50;;;;;;;;;;5031668;28;20030;-62
2021/05/05 02:52:47;;;;;;;19.58;7.15;;;;;;;;;;5029680;28;20025;-62
2021/05/05 02:55:14;;;;;;;18.23;7.63;;;;;;;;;;5030375;28;20393;-62
2021/05/05 02:57:40;;;;;;;17.30;6.93;;;;;;;;;;5030546;28;20112;-63
2021/05/05 03:00:09;;;;;;;21.33;6.82;;;;;;;;;;5031550;28;20452;-58
2021/05/05 03:02:35;;;;;;;17.83;7.00;;;;;;;;;;5031819;28;20441;-62
2021/05/05 03:05:02;;;;;;;18.05;6.70;;;;;;;;;;5030372;28;20013;-63
2021/05/05 03:07:28;;;;;;;16.25;6.68;;;;;;;;;;5030183;28;20098;-62
2021/05/05 03:09:54;;;;;;;16.75;6.53;;;;;;;;;;5031632;28;20022;-63
2021/05/05 03:12:20;;;;;;;16.33;6.40;;;;;;;;;;5030451;28;20033;-62
2021/05/05 03:14:46;;;;;;;17.15;6.03;;;;;;;;;;5030145;28;20025;-63
2021/05/05 03:17:12;;;;;;;20.17;7.15;;;;;;;;;;5031380;28;20041;-62
2021/05/05 03:19:38;;;;;;;15.00;5.68;;;;;;;;;;5029978;28;20022;-62
2021/05/05 03:22:04;;;;;;;16.23;5.45;;;;;;;;;;5029899;28;20032;-63
2021/05/05 03:24:30;;;;;;;18.70;5.20;;;;;;;;;;5030346;28;20018;-64
2021/05/05 03:26:56;;;;;;;15.48;5.47;;;;;;;;;;5030206;28;20393;-63
2021/05/05 03:29:22;;;;;;;13.88;5.07;;;;;;;;;;5030431;28;20124;-62
2021/05/05 03:31:48;;;;;;;16.30;6.43;;;;;;;;;;5030322;28;20064;-59
2021/05/05 03:34:14;;;;;;;15.07;6.78;;;;;;;;;;5030027;28;20485;-60
2021/05/05 03:36:41;;;;;;;17.75;6.80;;;;;;;;;;5031178;28;20028;-61
2021/05/05 03:39:07;;;;;;;18.27;7.50;;;;;;;;;;5031205;28;20026;-62
2021/05/05 03:41:33;;;;;;;16.75;7.45;;;;;;;;;;5031251;28;20029;-63
2021/05/05 03:43:59;;;;;;;17.80;7.72;;;;;;;;;;5029786;28;20028;-62
2021/05/05 03:46:25;;;;;;;15.98;7.57;;;;;;;;;;5031345;28;20034;-62
2021/05/05 03:48:51;;;;;;;17.00;7.85;;;;;;;;;;5029870;28;20085;-63
2021/05/05 03:51:17;;;;;;;16.10;7.18;;;;;;;;;;5031268;28;20485;-62
2021/05/05 03:53:44;;;;;;;16.70;7.85;;;;;;;;;;5030280;28;20092;-61
2021/05/05 03:56:10;;;;;;;15.52;7.13;;;;;;;;;;5031416;28;20021;-61
2021/05/05 03:58:36;;;;;;;16.75;12.43;;;;;;;;;;5031426;28;20080;-64
2021/05/05 04:01:02;;;;;;;15.32;6.90;;;;;;;;;;5029796;28;20017;-61
2021/05/05 04:03:28;;;;;;;16.83;7.82;;;;;;;;;;5031913;28;20048;-63
2021/05/05 04:05:54;;;;;;;18.15;8.23;;;;;;;;;;5034653;28;20037;-62
2021/05/05 04:08:20;;;;;;;15.80;7.68;;;;;;;;;;5033097;28;20065;-61
2021/05/05 04:10:46;;;;;;;16.92;7.40;;;;;;;;;;5033559;28;20064;-62
2021/05/05 04:13:12;;;;;;;15.85;7.00;;;;;;;;;;5035135;28;20489;-63
2021/05/05 04:15:38;;;;;;;16.45;7.20;;;;;;;;;;5032932;28;20080;-63
2021/05/05 04:18:05;;;;;;;17.42;7.10;;;;;;;;;;5033383;28;20083;-62
2021/05/05 04:20:32;;;;;;;16.95;7.90;;;;;;;;;;5034540;28;20104;-63
2021/05/05 04:22:58;;;;;;;16.48;7.22;;;;;;;;;;5034497;28;20025;-63
2021/05/05 04:25:24;;;;;;;17.85;7.85;;;;;;;;;;5034639;28;20029;-63
2021/05/05 04:27:50;;;;;;;16.05;7.03;;;;;;;;;;5034322;28;20033;-62
2021/05/05 04:30:19;;;;;;;18.10;7.75;;;;;;;;;;5033993;28;20378;-61
2021/05/05 04:32:50;;;;;;;15.85;7.75;;;;;;;;;;5033002;28;20519;-62
2021/05/05 04:35:16;;;;;;;15.68;7.03;;;;;;;;;;5034194;28;20029;-58
2021/05/05 04:37:42;;;;;;;16.23;6.85;;;;;;;;;;5034267;28;20097;-63
2021/05/05 04:40:09;;;;;;;16.33;6.88;;;;;;;;;;5034633;28;20056;-62
2021/05/05 04:42:35;;;;;;;13.95;5.50;;;;;;;;;;5033176;28;20021;-62
2021/05/05 04:45:03;;;;;;;13.68;5.60;;;;;;;;;;5033454;28;20048;-62
2021/05/05 04:47:29;;;;;;;16.02;5.60;;;;;;;;;;5032657;28;20041;-64
2021/05/05 04:49:55;;;;;;;14.32;5.53;;;;;;;;;;5032851;28;20443;-63
2021/05/05 04:52:21;;;;;;;15.52;5.63;;;;;;;;;;5034096;28;20025;-62
2021/05/05 04:54:47;;;;;;;14.82;4.78;;;;;;;;;;5032494;28;20030;-62
2021/05/05 04:57:13;;;;;;;12.75;5.07;;;;;;;;;;5033814;28;20069;-63
2021/05/05 04:59:39;;;;;;;16.55;6.18;;;;;;;;;;5033414;28;20049;-62
2021/05/05 05:02:05;;;;;;;16.48;5.25;;;;;;;;;;5032315;28;20031;-62
2021/05/05 05:04:33;;;;;;;15.48;7.00;;;;;;;;;;5033752;28;20021;-56
2021/05/05 05:06:59;;;;;;;13.82;4.75;;;;;;;;;;5033312;28;20030;-63
2021/05/05 05:09:25;;;;;;;12.40;5.00;;;;;;;;;;5033098;28;20045;-59
2021/05/05 05:11:51;;;;;;;14.70;5.45;;;;;;;;;;5033294;28;20149;-62
2021/05/05 05:14:17;;;;;;;14.05;4.97;;;;;;;;;;5031551;28;20434;-62
2021/05/05 05:16:42;;;;;;;14.25;5.35;;;;;;;;;;5033413;28;20029;-61
2021/05/05 05:19:08;;;;;;;14.73;5.60;;;;;;;;;;5033279;28;20021;-62
2021/05/05 05:21:36;;;;;;;15.93;4.88;;;;;;;;;;5031896;28;20056;-62
2021/05/05 05:24:02;;;;;;;14.10;4.85;;;;;;;;;;5032006;28;20025;-62
2021/05/05 05:26:28;;;;;;;14.27;5.45;;;;;;;;;;5033373;28;20504;-62
2021/05/05 05:28:54;;;;;;;15.30;5.38;;;;;;;;;;5033280;28;20389;-62
2021/05/05 05:31:20;;;;;;;15.93;5.80;;;;;;;;;;5031977;28;20112;-63
2021/05/05 05:33:46;;;;;;;15.65;5.00;;;;;;;;;;5031991;28;20397;-63
2021/05/05 05:36:12;;;;;;;12.20;5.30;;;;;;;;;;5031908;28;20120;-61
2021/05/05 05:38:38;;;;;;;18.08;5.85;;;;;;;;;;5033380;28;20489;-61
2021/05/05 05:41:04;;;;;;;17.05;5.32;;;;;;;;;;5033203;28;20432;-61
2021/05/05 05:43:33;;;;;;;18.63;5.55;;;;;;;;;;5031924;28;20053;-62
2021/05/05 05:45:59;;;;;;;14.05;5.10;;;;;;;;;;5031689;28;20233;-62
2021/05/05 05:48:25;;;;;;;16.73;5.15;;;;;;;;;;5031822;28;20281;-63
2021/05/05 05:50:51;;;;;;;16.02;5.53;;;;;;;;;;5031582;28;20036;-62
2021/05/05 05:53:17;;;;;;;16.38;5.55;;;;;;;;;;5031203;28;20041;-62
2021/05/05 05:55:44;;;;;;;17.65;5.55;;;;;;;;;;5031131;28;20033;-61
2021/05/05 05:58:10;;;;;;;20.58;5.90;;;;;;;;;;5032240;28;20017;-63
2021/05/05 06:00:37;;;;;;;23.95;7.68;;;;;;;;;;5030263;28;20026;-60
2021/05/05 06:03:05;;;;;;;15.82;5.20;;;;;;;;;;5030951;28;20064;-62
2021/05/05 06:05:32;;;;;;;23.98;6.22;;;;;;;;;;5032502;28;20033;-64
2021/05/05 06:07:58;;;;;;;16.73;5.80;;;;;;;;;;5032103;28;20516;-60
2021/05/05 06:10:24;;;;;;;17.00;6.03;;;;;;;;;;5031805;28;20040;-63
2021/05/05 06:12:50;;;;;;;12.90;4.88;;;;;;;;;;5030720;28;20026;-62
2021/05/05 06:15:16;;;;;;;15.75;5.50;;;;;;;;;;5032451;28;20578;-63
2021/05/05 06:17:42;;;;;;;16.13;6.10;;;;;;;;;;5035901;28;20026;-62
2021/05/05 06:20:16;;;;;;;15.27;5.53;;;;;;;;;;5039308;28;20264;-63
2021/05/05 06:22:42;;;;;;;16.45;6.28;;;;;;;;;;5050682;28;20432;-63
2021/05/05 06:25:09;;;;;;;17.67;7.03;;;;;;;;;;5041529;28;20025;-64
2021/05/05 06:27:36;;;;;;;12.35;5.13;;;;;;;;;;5031109;28;20033;-61
2021/05/05 06:30:02;;;;;;;22.30;5.70;;;;;;;;;;5031894;28;20599;-60
2021/05/05 06:32:28;;;;;;;16.08;6.90;;;;;;;;;;5031160;28;20025;-56
2021/05/05 06:34:54;;;;;;;16.65;6.20;;;;;;;;;;5050444;28;20036;-63
2021/05/05 06:37:22;;;;;;;18.60;6.10;;;;;;;;;;5050116;28;20029;-63
2021/05/05 06:39:48;;;;;;;21.40;7.93;;;;;;;;;;5050170;28;20025;-62
2021/05/05 06:42:15;;;;;;;19.38;8.07;;;;;;;;;;5050026;28;20035;-63
2021/05/05 06:44:40;;;;;;;20.40;6.65;;;;;;;;;;5051551;28;20049;-63
2021/05/05 06:47:07;;;;;;;21.35;7.82;;;;;;;;;;5050413;28;20064;-62
2021/05/05 06:49:34;;;;;;;17.15;7.18;;;;;;;;;;5050931;28;20027;-63
2021/05/05 06:52:01;;;;;;;16.97;7.03;;;;;;;;;;5031729;28;20074;-63
2021/05/05 06:54:28;;;;;;;19.55;6.68;;;;;;;;;;5078411;22;20055;-55
2021/05/05 06:56:54;;;;;;;18.90;6.43;;;;;;;;;;5091588;28;20024;-55
2021/05/05 06:59:20;;;;;;;19.38;6.78;;;;;;;;;;5072905;28;20023;-56
2021/05/05 07:01:47;;;;;;;18.77;6.90;;;;;;;;;;5091304;28;20025;-55
2021/05/05 07:04:13;;;;;;;16.08;6.55;;;;;;;;;;5091407;28;20035;-54
2021/05/05 07:06:39;;;;;;;18.77;7.18;;;;;;;;;;5091523;28;20059;-54
2021/05/05 07:09:05;;;;;;;16.90;7.03;;;;;;;;;;5091333;28;20040;-57
2021/05/05 07:11:35;;;;;;;17.63;8.32;;;;;;;;;;5091623;28;20024;-57
2021/05/05 07:14:01;;;;;;;23.15;9.77;;;;;;;;;;5090955;28;20165;-55
2021/05/05 07:16:27;;;;;;;19.35;8.85;;;;;;;;;;5090205;28;20031;-58
2021/05/05 07:18:53;;;;;;;19.08;8.90;;;;;;;;;;5092543;28;20028;-55
2021/05/05 07:21:19;;;;;;;18.80;8.90;;;;;;;;;;5101810;28;20159;-56
2021/05/05 07:23:45;;;;;;;16.25;8.90;;;;;;;;;;5108097;28;20051;-58
2021/05/05 07:26:12;;;;;;;19.42;9.43;;;;;;;;;;5111473;28;20027;-56
2021/05/05 07:28:41;;;;;;;19.80;8.73;;;;;;;;;;5111194;28;20099;-51
2021/05/05 07:31:07;;;;;;;17.70;7.60;;;;;;;;;;5111220;28;20028;-56
2021/05/05 07:33:36;;;;;;;18.95;7.90;;;;;;;;;;5109945;28;20388;-56
2021/05/05 07:36:03;;;;;;;16.65;7.53;;;;;;;;;;5110098;28;20077;-55
2021/05/05 07:42:25;;;;;;;18.05;7.82;;;;;;;;;;5085817;28;20051;-52
2021/05/05 07:46:46;;;;;;;19.00;7.05;;;;;;;;;;5114878;28;20066;-55
2021/05/05 07:49:15;;;;;;;16.77;7.68;;;;;;;;;;5114525;28;20051;-55
2021/05/05 07:51:41;;;;;;;15.38;5.93;;;;;;;;;;5103853;28;20024;-58
2021/05/05 07:54:07;;;;;;;19.10;10.05;;;;;;;;;;5094698;28;20032;-64
2021/05/05 07:56:33;;;;;;;14.38;5.93;;;;;;;;;;5093245;28;20529;-61
2021/05/05 07:59:03;;;;;;;18.55;6.97;;;;;;;;;;5094305;28;20017;-61
2021/05/05 08:01:29;;;;;;;14.25;5.97;;;;;;;;;;5094545;28;20036;-60
2021/05/05 08:03:56;;;;;;;18.30;7.03;;;;;;;;;;5094297;28;20055;-55
2021/05/05 08:06:22;;;;;;;17.88;6.75;;;;;;;;;;5094445;28;20099;-61
2021/05/05 08:08:48;;;;;;;18.85;6.68;;;;;;;;;;5093770;28;20035;-61
2021/05/05 08:11:14;;;;;;;15.55;6.25;;;;;;;;;;5093080;28;20392;-61
2021/05/05 08:13:41;;;;;;;20.73;6.30;;;;;;;;;;5094156;28;20033;-61
2021/05/05 08:16:08;;;;;;;18.70;6.55;;;;;;;;;;5094266;28;20016;-62
2021/05/05 08:18:34;;;;;;;15.63;6.40;;;;;;;;;;5093430;28;20028;-61
2021/05/05 08:21:01;;;;;;;15.32;6.13;;;;;;;;;;5093339;28;20043;-63
2021/05/05 08:23:27;;;;;;;15.98;5.97;;;;;;;;;;5094020;28;20111;-60
2021/05/05 08:25:53;;;;;;;15.45;5.25;;;;;;;;;;5093413;28;20491;-61
2021/05/05 08:28:19;;;;;;;17.20;5.70;;;;;;;;;;5093557;28;20044;-59
2021/05/05 08:30:46;;;;;;;14.40;5.22;;;;;;;;;;5093271;28;20077;-58
2021/05/05 08:33:12;;;;;;;12.00;5.03;;;;;;;;;;5091570;28;20534;-58
2021/05/05 08:35:39;;;;;;;12.68;5.25;;;;;;;;;;5093355;28;20115;-60
2021/05/05 08:38:06;;;;;;;15.45;5.95;;;;;;;;;;5093223;28;20036;-60
2021/05/05 08:40:33;;;;;;;14.07;4.97;;;;;;;;;;5092824;28;20020;-62
2021/05/05 08:42:59;;;;;;;13.63;5.05;;;;;;;;;;5091843;28;20113;-64
2021/05/05 08:45:26;;;;;;;17.90;11.77;;;;;;;;;;5093391;28;20020;-64
2021/05/05 08:47:54;;;;;;;17.43;12.50;;;;;;;;;;5093134;28;20456;-64
2021/05/05 08:50:21;;;;;;;19.88;12.80;;;;;;;;;;5089122;28;20313;-64
2021/05/05 08:52:47;;;;;;;20.70;12.43;;;;;;;;;;5085787;28;20530;-64
2021/05/05 08:55:14;;;;;;;17.58;9.80;;;;;;;;;;5076395;28;20147;-60
2021/05/05 08:57:40;;;;;;;13.25;4.90;;;;;;;;;;5073134;28;20025;-52
2021/05/05 09:00:07;;;;;;;19.02;5.32;;;;;;;;;;5082183;28;20140;-54
2021/05/05 09:02:33;;;;;;;15.90;5.10;;;;;;;;;;5091619;28;20027;-51
2021/05/05 09:05:00;;;;;;;14.75;5.00;;;;;;;;;;5091881;28;20016;-54
2021/05/05 09:07:31;;;;;;;15.85;5.53;;;;;;;;;;5091971;28;20020;-52
2021/05/05 09:10:00;;;;;;;11.32;4.38;;;;;;;;;;5092945;28;20116;-50
2021/05/05 09:12:26;;;;;;;14.43;4.78;;;;;;;;;;5092895;28;20028;-54
2021/05/05 09:14:56;;;;;;;14.60;4.63;;;;;;;;;;5091965;28;20100;-55
2021/05/05 09:17:25;;;;;;;11.98;4.50;;;;;;;;;;5091561;28;20024;-52
2021/05/05 09:19:58;;;;;;;12.93;5.50;;;;;;;;;;5093097;28;20117;-51
2021/05/05 09:22:39;;;;;;;11.50;4.53;;;;;;;;;;5093206;28;20494;-54
2021/05/05 09:25:05;;;;;;;16.55;5.95;;;;;;;;;;5091749;28;20030;-51
2021/05/05 09:27:35;;;;;;;14.85;5.85;;;;;;;;;;5093041;28;20028;-54
2021/05/05 09:30:01;;;;;;;14.93;4.68;;;;;;;;;;5091278;28;20028;-52
2021/05/05 09:32:28;;;;;;;11.27;4.20;;;;;;;;;;5093189;28;20085;-50
2021/05/05 09:34:59;;;;;;;18.13;5.25;;;;;;;;;;5092598;28;20024;-54
2021/05/05 09:37:25;;;;;;;10.65;4.10;;;;;;;;;;5093186;28;20032;-56
2021/05/05 09:40:06;;;;;;;12.35;4.60;;;;;;;;;;5091173;28;20024;-50
2021/05/05 09:42:33;;;;;;;13.65;4.20;;;;;;;;;;5092504;28;20027;-53
2021/05/05 09:45:00;;;;;;;11.98;4.70;;;;;;;;;;5092907;28;20078;-50
2021/05/05 09:47:46;;;;;;;13.45;4.88;;;;;;;;;;5093122;28;20078;-54
2021/05/05 09:50:31;;;;;;;16.80;5.30;;;;;;;;;;5082285;28;20040;-57
2021/05/05 09:53:13;;;;;;;15.07;5.78;;;;;;;;;;5091588;28;20020;-57
2021/05/05 09:55:40;;;;;;;13.20;4.38;;;;;;;;;;5092781;28;20036;-54
2021/05/05 09:58:25;;;;;;;11.50;4.25;;;;;;;;;;5092822;28;20073;-56
2021/05/05 10:01:06;;;;;;;11.20;3.90;;;;;;;;;;5092130;28;20476;-53
2021/05/05 10:03:35;;;;;;;10.10;4.18;;;;;;;;;;5091764;28;20398;-55
2021/05/05 10:06:17;;;;;;;14.93;5.25;;;;;;;;;;5092368;28;20028;-52
2021/05/05 10:08:43;;;;;;;15.95;12.32;;;;;;;;;;5091788;28;20024;-53
2021/05/05 10:11:09;;;;;;;12.55;5.85;;;;;;;;;;5092087;28;20066;-56
2021/05/05 10:13:36;;;;;;;12.80;4.85;;;;;;;;;;5092290;28;20093;-54
2021/05/05 10:16:02;;;;;;;12.75;4.75;;;;;;;;;;5092137;28;20490;-54
2021/05/05 10:18:29;;;;;;;13.48;4.88;;;;;;;;;;5090866;28;20074;-51
2021/05/05 10:20:55;;;;;;;7.05;3.55;;;;;;;;;;5091705;28;20025;-52
2021/05/05 10:23:21;;;;;;;8.90;3.63;;;;;;;;;;5091842;28;20077;-55
2021/05/05 10:25:50;;;;;;;8.70;3.35;;;;;;;;;;5092011;28;20372;-50
2021/05/05 10:28:17;;;;;;;10.45;3.95;;;;;;;;;;5091958;28;20099;-53
2021/05/05 10:30:43;;;;;;;8.30;3.60;;;;;;;;;;5091739;28;20031;-53
2021/05/05 10:33:24;;;;;;;12.55;4.05;;;;;;;;;;5092260;28;20020;-56
2021/05/05 10:35:50;;;;;;;13.18;4.22;;;;;;;;;;5092215;28;20024;-55
2021/05/05 10:38:36;;;;;;;11.18;4.13;;;;;;;;;;5090891;28;20139;-55
2021/05/05 10:41:10;;;;;;;13.35;4.20;;;;;;;;;;5091831;28;20024;-55
2021/05/05 10:43:49;;;;;;;11.13;4.10;;;;;;;;;;5091690;28;20043;-53
2021/05/05 10:46:24;;;;;;;13.50;5.15;;;;;;;;;;5091903;28;20119;-53
2021/05/05 10:49:04;;;;;;;12.75;4.72;;;;;;;;;;5091647;28;20028;-54
2021/05/05 10:51:56;;;;;;;13.23;4.75;;;;;;;;;;5091328;28;20051;-55
2021/05/05 10:54:22;;;;;;;15.15;5.05;;;;;;;;;;5087735;28;20086;-53
2021/05/05 10:57:07;;;;;;;16.05;5.95;;;;;;;;;;5091532;28;20020;-51
2021/05/05 10:59:59;;;;;;;13.90;6.53;;;;;;;;;;5091465;28;20035;-59
2021/05/05 11:02:47;;;;;;;14.60;10.20;;;;;;;;;;5089042;28;20038;-57
2021/05/05 11:05:44;;;;;;;13.20;7.60;;;;;;;;;;5091919;28;20016;-54
2021/05/05 11:08:25;;;;;;;10.98;5.50;;;;;;;;;;5077847;28;20115;-57
2021/05/05 11:10:51;;;;;;;17.90;12.32;;;;;;;;;;5088579;28;20019;-56
2021/05/05 11:13:24;;;;;;;19.30;17.27;;;;;;;;;;5092886;28;20396;-53
2021/05/05 11:15:53;;;;;;;20.15;13.50;;;;;;;;;;5109287;28;20024;-59
2021/05/05 11:18:29;;;;;;;19.40;12.27;;;;;;;;;;5110941;28;20085;-55
2021/05/05 11:21:11;;;;;;;16.75;10.50;;;;;;;;;;5112865;28;20034;-54
2021/05/05 11:23:42;;;;;;;16.73;10.70;;;;;;;;;;5107976;28;20073;-53
2021/05/05 11:26:28;;;;;;;17.92;10.98;;;;;;;;;;5094438;28;20099;-52
2021/05/05 11:29:01;;;;;;;17.30;9.18;;;;;;;;;;5091645;28;20148;-57
2021/05/05 11:31:49;;;;;;;21.13;10.57;;;;;;;;;;5094878;28;20020;-52
2021/05/05 11:34:22;;;;;;;16.73;8.50;;;;;;;;;;5096851;28;20042;-55
2021/05/05 11:37:05;;;;;;;19.05;7.88;;;;;;;;;;5095320;28;20032;-52
2021/05/05 11:39:41;;;;;;;14.68;7.30;;;;;;;;;;5098727;28;20642;-57
2021/05/05 11:42:10;;;;;;;17.58;8.50;;;;;;;;;;5103164;28;20042;-53
2021/05/05 11:44:42;;;;;;;17.45;7.65;;;;;;;;;;5103705;28;20050;-57
2021/05/05 11:47:19;;;;;;;13.52;7.00;;;;;;;;;;5104576;28;20024;-55
2021/05/05 11:49:49;;;;;;;15.45;7.43;;;;;;;;;;5093871;28;20023;-56
2021/05/05 11:52:22;;;;;;;14.43;6.70;;;;;;;;;;5105793;28;20107;-59
2021/05/05 11:54:49;;;;;;;15.23;7.00;;;13.70;99.90;;;;;;5095233;28;20072;-56
2021/05/05 11:57:16;;;;;;;17.08;10.25;;;;;;;;;;5093923;28;20035;-55
2021/05/05 11:59:46;;;;;;;14.77;8.90;;;8.70;99.90;;;;;;4892836;28;10001362;-59
2021/05/05 12:02:12;;;;;;;16.63;8.10;;;7.10;99.90;;;;;;5091112;28;20248;-60
2021/05/05 12:04:40;;;;;;;14.50;8.00;;;7.00;99.90;;;;;;5102443;28;20025;-58
2021/05/05 12:07:07;;;;;;;;;;;7.10;99.90;;;;;;5100718;28;20024;-58
2021/05/05 12:09:37;;;;;;;13.95;7.07;;;7.10;99.90;;;;;;5099919;28;19904;-58
2021/05/05 12:12:15;;;;;;;16.85;7.13;;;7.20;99.90;;;;;;5097725;28;20488;-57
2021/05/05 12:14:44;;;;;;;17.27;7.00;;;7.30;99.90;;;;;;5100714;28;20028;-51
2021/05/05 12:17:17;;;;;;;13.88;6.53;;;7.40;99.90;;;;;;5096228;28;20039;-58
2021/05/05 12:19:53;;;;;;;17.33;6.75;;;7.60;99.90;;;;;;5091900;28;20036;-56
2021/05/05 12:22:19;;;;;;;15.55;7.45;;;7.70;99.90;;;;;;5090211;28;20016;-53
2021/05/05 12:25:04;;;;;;;14.63;6.82;;;;;;;;;;5090310;28;20027;-55
2021/05/05 12:27:30;;;;;;;16.17;6.95;;;;;;;;;;5091864;28;20073;-55
2021/05/05 12:30:03;;;;;;;18.17;6.43;;;;;;;;;;5092049;28;20067;-55
2021/05/05 12:32:45;;;;;;;18.95;6.50;;;;;;;;;;5092067;28;20028;-58
2021/05/05 12:35:12;;;;;;;15.20;6.78;;;;;;;;;;5085472;28;20111;-56
2021/05/05 12:37:38;;;;;;;15.50;7.07;;;;;;;;;;5070956;28;20353;-56
2021/05/05 12:40:05;;;;;;;16.58;6.70;;;;;;;;;;5070804;28;20052;-53
2021/05/05 12:42:37;;;;;;;16.98;6.53;;;;;;;;;;5071211;28;20111;-57
2021/05/05 12:45:07;;;;;;;17.50;7.30;;;;;;;;;;5071047;28;20029;-56
2021/05/05 12:47:33;;;;;;;12.98;6.00;;;;;;;;;;5071120;28;20029;-53
2021/05/05 12:49:59;;;;;;;13.90;6.28;;;;;;;;;;5070733;28;20025;-54
2021/05/05 12:52:25;;;;;;;16.98;6.30;;;;;;;;;;5070975;28;20055;-55
2021/05/05 12:54:52;;;;;;;14.00;6.25;;;;;;;;;;5100873;23;20122;-60
2021/05/05 12:57:19;;;;;;;13.65;6.35;;;;;;;;;;5089120;28;20055;-57
2021/05/05 12:59:47;;;;;;;14.68;6.10;;;;;;;;;;5088972;28;20020;-58
2021/05/05 13:02:20;;;;;;;15.20;6.15;;;;;;;;;;5089651;28;20032;-59
2021/05/05 13:04:46;;;;;;;13.27;6.03;;;;;;;;;;5090245;28;20301;-59
2021/05/05 13:07:38;;;;;;;13.65;6.25;;;;;;;;;;5089939;28;20463;-59
2021/05/05 13:10:05;;;;;;;14.70;6.45;;;;;;;;;;5067641;28;20051;-61
2021/05/05 13:12:38;;;;;;;14.88;5.30;;;;;;;;;;5069137;28;20034;-60
2021/05/05 13:15:40;;;;;;;16.10;5.75;;;;;;;;;;5067714;28;20085;-57
2021/05/05 13:31:44;;;;;;;13.45;5.25;;;;;;;;;;5089626;28;20407;-59
2021/05/05 13:34:13;;;;;;;17.23;12.40;;;;;;;;;;5088152;28;20059;-59
2021/05/05 13:36:59;;;;;;;20.13;13.05;;;;;;;;;;5088738;28;20073;-60
2021/05/05 13:39:25;;;;;;;16.77;5.63;;;;;;;;;;5089573;28;20024;-62
2021/05/05 13:41:52;;;;;;;18.75;6.25;;;;;;;;;;5106037;28;20019;-60
2021/05/05 13:44:27;;;;;;;12.20;5.50;;;;;;;;;;5108801;28;20130;-60
2021/05/05 13:47:05;;;;;;;22.02;5.78;;;7.90;99.90;;;;;;5109043;28;20374;-60
2021/05/05 13:49:42;;;;;;;16.42;6.13;;;;;;;;;;5108988;28;20102;-60
2021/05/05 13:52:08;;;;;;;18.25;5.75;;;;;;;;;;5109030;28;20471;-61
2021/05/05 13:54:34;;;;;;;15.98;6.00;;;;;;;;;;5095690;28;20032;-59
2021/05/05 13:57:03;;;;;;;21.33;6.72;;;;;;;;;;5085710;28;20114;-61
2021/05/05 13:59:30;;;;;;;19.55;6.57;;;;;;;;;;5086708;28;20028;-58
2021/05/05 14:01:58;;;;;;;17.80;5.75;;;;;;;;;;5084520;28;20527;-58
2021/05/05 14:04:24;;;;;;;15.95;6.07;;;;;;;;;;5088756;28;20552;-60
2021/05/05 14:06:50;;;;;;;17.60;6.32;;;;;;;;;;5089201;28;20082;-61
2021/05/05 14:09:17;;;;;;;20.00;6.78;;;;;;;;;;5088602;28;20381;-60
2021/05/05 14:11:43;;;;;;;22.80;7.78;;;;;;;;;;5088256;28;20115;-60
2021/05/05 14:14:09;;;;;;;19.08;6.53;;;;;;;;;;5086440;28;20032;-62
2021/05/05 14:16:35;;;;;;;19.90;6.80;;;;;;;;;;5087998;28;20020;-62
2021/05/05 14:19:02;;;;;;;18.88;6.32;;;;;;;;;;5090112;28;20028;-57
2021/05/05 14:21:28;;;;;;;18.13;6.93;;;;;;;;;;5090418;28;20054;-60
2021/05/05 14:23:54;;;;;;;18.52;12.93;;;;;;;;;;5090750;28;20161;-62
2021/05/05 14:26:20;;;;;;;22.20;13.98;;;;;;;;;;5090182;28;20055;-63
2021/05/05 14:28:47;;;;;;;22.42;13.80;;;;;;;;;;5091187;28;20020;-61
2021/05/05 14:31:13;;;;;;;18.15;6.65;;;;;;;;;;5091929;28;20471;-62
2021/05/05 14:33:40;;;;;;;14.63;5.78;;;;;;;;;;5090042;28;20020;-61
2021/05/05 14:36:07;;;;;;;15.70;6.50;;;;;;;;;;5088953;28;20054;-58
2021/05/05 14:38:36;;;;;;;19.55;14.93;;;;;;;;;;5093612;28;20323;-60
2021/05/05 14:41:07;;;;;;;19.20;12.23;;;;;;;;;;5090685;28;20081;-61
2021/05/05 14:43:46;;;;;;;16.20;6.70;;;;;;;;;;5090659;28;20024;-58
2021/05/05 14:48:38;;;;;;;17.83;7.60;;;;;;;;;;5100441;28;20468;-58
2021/05/05 14:51:05;;;;;;;16.13;7.55;;;;;;;;;;5086548;28;20034;-60
2021/05/05 14:53:31;;;;;;;17.17;8.18;;;;;;;;;;5071533;28;20025;-59
2021/05/05 14:55:58;;;;;;;17.83;7.63;;;;;;;;;;5070614;28;20090;-60